sensor_id;sensor_type;location;lat;lon;timestamp;P1;durP1;ratioP1;P2;durP2;ratioP2
53072;SDS011;38955;48.916;2.336;2023-10-09T00:01:58;27.02;;;17.20;;
53072;SDS011;38955;48.916;2.336;2023-10-09T00:04:00;25.88;;;16.55;;
53072;SDS011;38955;48.916;2.336;2023-10-09T00:06:04;30.08;;;16.77;;
53072;SDS011;38955;48.916;2.336;2023-10-09T00:08:07;26.17;;;15.82;;
53072;SDS011;38955;48.916;2.336;2023-10-09T00:10:11;26.37;;;16.33;;
53072;SDS011;38955;48.916;2.336;2023-10-09T00:12:14;28.10;;;15.23;;
53072;SDS011;38955;48.916;2.336;2023-10-09T00:14:19;30.20;;;15.55;;
53072;SDS011;38955;48.916;2.336;2023-10-09T00:16:21;23.20;;;14.63;;
53072;SDS011;38955;48.916;2.336;2023-10-09T00:18:37;31.80;;;14.75;;
53072;SDS011;38955;48.916;2.336;2023-10-09T00:20:39;30.40;;;14.85;;
53072;SDS011;38955;48.916;2.336;2023-10-09T00:22:44;24.23;;;15.85;;
53072;SDS011;38955;48.916;2.336;2023-10-09T00:24:47;29.67;;;15.73;;
53072;SDS011;38955;48.916;2.336;2023-10-09T00:26:52;23.73;;;14.90;;
53072;SDS011;38955;48.916;2.336;2023-10-09T00:29:06;26.23;;;14.63;;
53072;SDS011;38955;48.916;2.336;2023-10-09T00:31:09;25.38;;;15.82;;
53072;SDS011;38955;48.916;2.336;2023-10-09T00:33:16;26.58;;;14.88;;
53072;SDS011;38955;48.916;2.336;2023-10-09T00:35:24;25.30;;;14.75;;
53072;SDS011;38955;48.916;2.336;2023-10-09T00:39:41;23.67;;;14.43;;
53072;SDS011;38955;48.916;2.336;2023-10-09T00:41:50;22.58;;;13.27;;
53072;SDS011;38955;48.916;2.336;2023-10-09T00:43:53;23.88;;;14.02;;
53072;SDS011;38955;48.916;2.336;2023-10-09T00:45:55;19.05;;;13.23;;
53072;SDS011;38955;48.916;2.336;2023-10-09T00:48:12;21.98;;;12.95;;
53072;SDS011;38955;48.916;2.336;2023-10-09T00:50:23;25.77;;;13.77;;
53072;SDS011;38955;48.916;2.336;2023-10-09T00:52:28;19.10;;;12.65;;
53072;SDS011;38955;48.916;2.336;2023-10-09T00:54:38;24.73;;;13.05;;
53072;SDS011;38955;48.916;2.336;2023-10-09T00:56:43;18.10;;;12.65;;
53072;SDS011;38955;48.916;2.336;2023-10-09T00:58:46;21.10;;;12.63;;
53072;SDS011;38955;48.916;2.336;2023-10-09T01:00:57;18.75;;;12.13;;
53072;SDS011;38955;48.916;2.336;2023-10-09T01:03:01;18.00;;;11.18;;
53072;SDS011;38955;48.916;2.336;2023-10-09T01:05:23;21.75;;;12.15;;
53072;SDS011;38955;48.916;2.336;2023-10-09T01:07:28;25.70;;;13.85;;
53072;SDS011;38955;48.916;2.336;2023-10-09T01:09:33;22.02;;;12.95;;
53072;SDS011;38955;48.916;2.336;2023-10-09T01:11:44;21.00;;;11.85;;
53072;SDS011;38955;48.916;2.336;2023-10-09T01:13:50;26.50;;;13.60;;
53072;SDS011;38955;48.916;2.336;2023-10-09T01:15:52;18.85;;;12.18;;
53072;SDS011;38955;48.916;2.336;2023-10-09T01:17:55;21.02;;;11.90;;
53072;SDS011;38955;48.916;2.336;2023-10-09T01:20:00;23.08;;;13.02;;
53072;SDS011;38955;48.916;2.336;2023-10-09T01:22:07;24.42;;;12.50;;
53072;SDS011;38955;48.916;2.336;2023-10-09T01:24:16;21.65;;;11.73;;
53072;SDS011;38955;48.916;2.336;2023-10-09T01:26:20;17.92;;;10.90;;
53072;SDS011;38955;48.916;2.336;2023-10-09T01:28:24;20.73;;;11.32;;
53072;SDS011;38955;48.916;2.336;2023-10-09T01:30:27;22.60;;;11.02;;
53072;SDS011;38955;48.916;2.336;2023-10-09T01:32:29;25.27;;;12.60;;
53072;SDS011;38955;48.916;2.336;2023-10-09T01:34:32;23.25;;;10.68;;
53072;SDS011;38955;48.916;2.336;2023-10-09T01:36:46;17.20;;;11.52;;
53072;SDS011;38955;48.916;2.336;2023-10-09T01:38:50;19.33;;;11.50;;
53072;SDS011;38955;48.916;2.336;2023-10-09T01:40:56;16.63;;;10.95;;
53072;SDS011;38955;48.916;2.336;2023-10-09T01:43:06;26.67;;;12.07;;
53072;SDS011;38955;48.916;2.336;2023-10-09T01:45:11;15.68;;;9.77;;
53072;SDS011;38955;48.916;2.336;2023-10-09T01:47:19;16.55;;;10.57;;
53072;SDS011;38955;48.916;2.336;2023-10-09T01:49:23;21.10;;;10.87;;
53072;SDS011;38955;48.916;2.336;2023-10-09T01:51:31;23.58;;;10.43;;
53072;SDS011;38955;48.916;2.336;2023-10-09T01:55:39;18.73;;;10.05;;
53072;SDS011;38955;48.916;2.336;2023-10-09T01:57:43;15.63;;;10.15;;
53072;SDS011;38955;48.916;2.336;2023-10-09T01:59:46;17.55;;;10.30;;
53072;SDS011;38955;48.916;2.336;2023-10-09T02:01:50;21.98;;;9.98;;
53072;SDS011;38955;48.916;2.336;2023-10-09T02:03:56;20.98;;;10.05;;
53072;SDS011;38955;48.916;2.336;2023-10-09T02:06:05;23.35;;;10.02;;
53072;SDS011;38955;48.916;2.336;2023-10-09T02:08:19;15.38;;;10.05;;
53072;SDS011;38955;48.916;2.336;2023-10-09T02:10:28;18.05;;;9.65;;
53072;SDS011;38955;48.916;2.336;2023-10-09T02:12:30;21.92;;;10.43;;
53072;SDS011;38955;48.916;2.336;2023-10-09T02:16:42;23.80;;;10.85;;
53072;SDS011;38955;48.916;2.336;2023-10-09T02:18:45;18.90;;;10.15;;
53072;SDS011;38955;48.916;2.336;2023-10-09T02:23:09;18.70;;;10.25;;
53072;SDS011;38955;48.916;2.336;2023-10-09T02:25:14;21.92;;;10.85;;
53072;SDS011;38955;48.916;2.336;2023-10-09T02:27:21;22.27;;;11.02;;
53072;SDS011;38955;48.916;2.336;2023-10-09T02:29:48;18.35;;;10.52;;
53072;SDS011;38955;48.916;2.336;2023-10-09T02:31:50;17.83;;;10.23;;
53072;SDS011;38955;48.916;2.336;2023-10-09T02:34:02;16.40;;;10.00;;
53072;SDS011;38955;48.916;2.336;2023-10-09T02:36:07;21.13;;;10.88;;
53072;SDS011;38955;48.916;2.336;2023-10-09T02:38:09;18.55;;;10.55;;
53072;SDS011;38955;48.916;2.336;2023-10-09T02:40:16;20.30;;;10.45;;
53072;SDS011;38955;48.916;2.336;2023-10-09T02:42:26;19.88;;;9.88;;
53072;SDS011;38955;48.916;2.336;2023-10-09T02:44:29;15.98;;;10.50;;
53072;SDS011;38955;48.916;2.336;2023-10-09T02:46:37;17.80;;;10.88;;
53072;SDS011;38955;48.916;2.336;2023-10-09T02:48:41;22.48;;;12.02;;
53072;SDS011;38955;48.916;2.336;2023-10-09T02:50:46;25.65;;;11.77;;
53072;SDS011;38955;48.916;2.336;2023-10-09T02:52:51;25.63;;;11.18;;
53072;SDS011;38955;48.916;2.336;2023-10-09T02:55:00;17.92;;;9.93;;
53072;SDS011;38955;48.916;2.336;2023-10-09T02:57:09;22.67;;;10.82;;
53072;SDS011;38955;48.916;2.336;2023-10-09T02:59:17;15.93;;;8.93;;
53072;SDS011;38955;48.916;2.336;2023-10-09T03:01:23;15.88;;;9.60;;
53072;SDS011;38955;48.916;2.336;2023-10-09T03:03:26;26.08;;;10.30;;
53072;SDS011;38955;48.916;2.336;2023-10-09T03:05:29;20.33;;;9.38;;
53072;SDS011;38955;48.916;2.336;2023-10-09T03:07:32;21.13;;;9.38;;
53072;SDS011;38955;48.916;2.336;2023-10-09T03:09:36;23.60;;;10.40;;
53072;SDS011;38955;48.916;2.336;2023-10-09T03:11:39;19.15;;;9.82;;
53072;SDS011;38955;48.916;2.336;2023-10-09T03:13:43;21.25;;;9.15;;
53072;SDS011;38955;48.916;2.336;2023-10-09T03:15:46;22.20;;;8.63;;
53072;SDS011;38955;48.916;2.336;2023-10-09T03:17:49;22.77;;;8.82;;
53072;SDS011;38955;48.916;2.336;2023-10-09T03:19:53;23.15;;;9.85;;
53072;SDS011;38955;48.916;2.336;2023-10-09T03:21:56;17.85;;;8.27;;
53072;SDS011;38955;48.916;2.336;2023-10-09T03:23:59;17.73;;;8.32;;
53072;SDS011;38955;48.916;2.336;2023-10-09T03:26:06;19.90;;;9.07;;
53072;SDS011;38955;48.916;2.336;2023-10-09T03:28:21;21.20;;;9.88;;
53072;SDS011;38955;48.916;2.336;2023-10-09T03:30:23;18.17;;;8.70;;
53072;SDS011;38955;48.916;2.336;2023-10-09T03:32:26;22.95;;;9.95;;
53072;SDS011;38955;48.916;2.336;2023-10-09T03:34:28;22.77;;;8.98;;
53072;SDS011;38955;48.916;2.336;2023-10-09T03:36:33;19.23;;;8.48;;
53072;SDS011;38955;48.916;2.336;2023-10-09T03:38:40;20.85;;;8.60;;
53072;SDS011;38955;48.916;2.336;2023-10-09T03:40:42;15.77;;;8.43;;
53072;SDS011;38955;48.916;2.336;2023-10-09T03:42:44;15.25;;;7.82;;
53072;SDS011;38955;48.916;2.336;2023-10-09T03:44:46;18.63;;;8.07;;
53072;SDS011;38955;48.916;2.336;2023-10-09T03:46:55;19.15;;;8.20;;
53072;SDS011;38955;48.916;2.336;2023-10-09T03:48:58;16.20;;;7.53;;
53072;SDS011;38955;48.916;2.336;2023-10-09T03:51:03;19.42;;;8.15;;
53072;SDS011;38955;48.916;2.336;2023-10-09T03:53:23;17.33;;;7.68;;
53072;SDS011;38955;48.916;2.336;2023-10-09T03:55:30;15.77;;;7.70;;
53072;SDS011;38955;48.916;2.336;2023-10-09T03:57:33;21.25;;;9.10;;
53072;SDS011;38955;48.916;2.336;2023-10-09T03:59:35;23.15;;;8.48;;
53072;SDS011;38955;48.916;2.336;2023-10-09T04:01:38;19.92;;;8.55;;
53072;SDS011;38955;48.916;2.336;2023-10-09T04:03:46;16.02;;;8.18;;
53072;SDS011;38955;48.916;2.336;2023-10-09T04:05:52;18.75;;;7.65;;
53072;SDS011;38955;48.916;2.336;2023-10-09T04:07:55;21.05;;;7.90;;
53072;SDS011;38955;48.916;2.336;2023-10-09T04:10:01;21.42;;;8.93;;
53072;SDS011;38955;48.916;2.336;2023-10-09T04:12:32;22.02;;;8.38;;
53072;SDS011;38955;48.916;2.336;2023-10-09T04:14:35;13.40;;;7.70;;
53072;SDS011;38955;48.916;2.336;2023-10-09T04:16:37;22.73;;;9.38;;
53072;SDS011;38955;48.916;2.336;2023-10-09T04:18:53;17.25;;;8.73;;
53072;SDS011;38955;48.916;2.336;2023-10-09T04:20:57;20.20;;;8.40;;
53072;SDS011;38955;48.916;2.336;2023-10-09T04:23:18;15.90;;;7.45;;
53072;SDS011;38955;48.916;2.336;2023-10-09T04:25:37;20.02;;;8.10;;
53072;SDS011;38955;48.916;2.336;2023-10-09T04:27:43;18.90;;;7.93;;
53072;SDS011;38955;48.916;2.336;2023-10-09T04:29:48;12.88;;;7.68;;
53072;SDS011;38955;48.916;2.336;2023-10-09T04:31:51;18.58;;;8.00;;
53072;SDS011;38955;48.916;2.336;2023-10-09T04:33:53;21.05;;;7.80;;
53072;SDS011;38955;48.916;2.336;2023-10-09T04:36:15;14.70;;;7.57;;
53072;SDS011;38955;48.916;2.336;2023-10-09T04:38:24;16.63;;;7.78;;
53072;SDS011;38955;48.916;2.336;2023-10-09T04:40:27;17.73;;;8.15;;
53072;SDS011;38955;48.916;2.336;2023-10-09T04:42:48;16.85;;;7.85;;
53072;SDS011;38955;48.916;2.336;2023-10-09T04:45:00;12.73;;;7.38;;
53072;SDS011;38955;48.916;2.336;2023-10-09T04:47:02;19.75;;;8.38;;
53072;SDS011;38955;48.916;2.336;2023-10-09T04:49:15;13.77;;;7.68;;
53072;SDS011;38955;48.916;2.336;2023-10-09T04:51:37;17.23;;;7.22;;
53072;SDS011;38955;48.916;2.336;2023-10-09T04:53:40;19.33;;;8.00;;
53072;SDS011;38955;48.916;2.336;2023-10-09T04:55:49;17.85;;;7.30;;
53072;SDS011;38955;48.916;2.336;2023-10-09T04:58:00;14.98;;;7.55;;
53072;SDS011;38955;48.916;2.336;2023-10-09T05:00:04;19.92;;;7.07;;
53072;SDS011;38955;48.916;2.336;2023-10-09T05:02:33;13.48;;;7.35;;
53072;SDS011;38955;48.916;2.336;2023-10-09T05:04:38;19.52;;;7.63;;
53072;SDS011;38955;48.916;2.336;2023-10-09T05:06:42;20.90;;;7.97;;
53072;SDS011;38955;48.916;2.336;2023-10-09T05:08:56;14.02;;;7.50;;
53072;SDS011;38955;48.916;2.336;2023-10-09T05:11:09;25.25;;;8.18;;
53072;SDS011;38955;48.916;2.336;2023-10-09T05:13:37;17.90;;;7.60;;
53072;SDS011;38955;48.916;2.336;2023-10-09T05:15:39;18.27;;;7.57;;
53072;SDS011;38955;48.916;2.336;2023-10-09T05:17:47;15.38;;;7.18;;
53072;SDS011;38955;48.916;2.336;2023-10-09T05:19:57;16.08;;;7.20;;
53072;SDS011;38955;48.916;2.336;2023-10-09T05:22:20;19.95;;;6.85;;
53072;SDS011;38955;48.916;2.336;2023-10-09T05:24:38;17.17;;;7.68;;
53072;SDS011;38955;48.916;2.336;2023-10-09T05:26:48;18.02;;;6.57;;
53072;SDS011;38955;48.916;2.336;2023-10-09T05:28:52;14.70;;;6.65;;
53072;SDS011;38955;48.916;2.336;2023-10-09T05:30:59;19.83;;;7.45;;
53072;SDS011;38955;48.916;2.336;2023-10-09T05:33:09;19.38;;;6.65;;
53072;SDS011;38955;48.916;2.336;2023-10-09T05:35:30;15.40;;;6.75;;
53072;SDS011;38955;48.916;2.336;2023-10-09T05:37:41;17.42;;;7.57;;
53072;SDS011;38955;48.916;2.336;2023-10-09T05:39:47;17.45;;;7.32;;
53072;SDS011;38955;48.916;2.336;2023-10-09T05:42:09;22.08;;;7.10;;
53072;SDS011;38955;48.916;2.336;2023-10-09T05:44:20;31.38;;;7.75;;
53072;SDS011;38955;48.916;2.336;2023-10-09T05:46:41;25.98;;;7.07;;
53072;SDS011;38955;48.916;2.336;2023-10-09T05:49:03;19.23;;;6.82;;
53072;SDS011;38955;48.916;2.336;2023-10-09T05:51:21;21.15;;;7.10;;
53072;SDS011;38955;48.916;2.336;2023-10-09T05:53:43;23.35;;;7.25;;
53072;SDS011;38955;48.916;2.336;2023-10-09T05:55:45;23.30;;;7.07;;
53072;SDS011;38955;48.916;2.336;2023-10-09T05:58:06;29.73;;;9.15;;
53072;SDS011;38955;48.916;2.336;2023-10-09T06:00:33;18.90;;;7.32;;
53072;SDS011;38955;48.916;2.336;2023-10-09T06:02:53;22.88;;;8.10;;
53072;SDS011;38955;48.916;2.336;2023-10-09T06:05:19;21.48;;;8.27;;
53072;SDS011;38955;48.916;2.336;2023-10-09T06:07:40;17.92;;;7.53;;
53072;SDS011;38955;48.916;2.336;2023-10-09T06:10:02;20.55;;;7.28;;
53072;SDS011;38955;48.916;2.336;2023-10-09T06:12:18;25.38;;;8.23;;
53072;SDS011;38955;48.916;2.336;2023-10-09T06:14:33;21.20;;;8.52;;
53072;SDS011;38955;48.916;2.336;2023-10-09T06:16:37;19.08;;;6.85;;
53072;SDS011;38955;48.916;2.336;2023-10-09T06:18:39;20.48;;;8.15;;
53072;SDS011;38955;48.916;2.336;2023-10-09T06:20:45;28.70;;;8.50;;
53072;SDS011;38955;48.916;2.336;2023-10-09T06:23:05;25.98;;;8.40;;
53072;SDS011;38955;48.916;2.336;2023-10-09T06:25:37;19.63;;;7.25;;
53072;SDS011;38955;48.916;2.336;2023-10-09T06:27:40;20.67;;;7.15;;
53072;SDS011;38955;48.916;2.336;2023-10-09T06:29:54;27.88;;;8.18;;
53072;SDS011;38955;48.916;2.336;2023-10-09T06:32:31;19.20;;;7.22;;
53072;SDS011;38955;48.916;2.336;2023-10-09T06:34:33;19.67;;;7.68;;
53072;SDS011;38955;48.916;2.336;2023-10-09T06:36:36;27.00;;;8.50;;
53072;SDS011;38955;48.916;2.336;2023-10-09T06:38:47;20.80;;;7.60;;
53072;SDS011;38955;48.916;2.336;2023-10-09T06:41:09;27.55;;;7.95;;
53072;SDS011;38955;48.916;2.336;2023-10-09T06:43:13;18.60;;;7.82;;
53072;SDS011;38955;48.916;2.336;2023-10-09T06:45:29;21.23;;;8.15;;
53072;SDS011;38955;48.916;2.336;2023-10-09T06:47:47;17.95;;;7.50;;
53072;SDS011;38955;48.916;2.336;2023-10-09T06:50:09;30.95;;;9.25;;
53072;SDS011;38955;48.916;2.336;2023-10-09T06:52:38;24.75;;;7.15;;
53072;SDS011;38955;48.916;2.336;2023-10-09T06:54:59;24.13;;;7.22;;
53072;SDS011;38955;48.916;2.336;2023-10-09T06:57:16;18.70;;;6.72;;
53072;SDS011;38955;48.916;2.336;2023-10-09T06:59:39;19.98;;;8.20;;
53072;SDS011;38955;48.916;2.336;2023-10-09T07:01:44;24.88;;;7.35;;
53072;SDS011;38955;48.916;2.336;2023-10-09T07:03:52;20.10;;;7.13;;
53072;SDS011;38955;48.916;2.336;2023-10-09T07:06:02;24.05;;;7.72;;
53072;SDS011;38955;48.916;2.336;2023-10-09T07:08:11;20.63;;;7.47;;
53072;SDS011;38955;48.916;2.336;2023-10-09T07:10:33;15.80;;;7.45;;
53072;SDS011;38955;48.916;2.336;2023-10-09T07:12:41;19.67;;;8.05;;
53072;SDS011;38955;48.916;2.336;2023-10-09T07:14:46;15.57;;;6.72;;
53072;SDS011;38955;48.916;2.336;2023-10-09T07:16:48;16.17;;;7.03;;
53072;SDS011;38955;48.916;2.336;2023-10-09T07:19:02;18.35;;;7.05;;
53072;SDS011;38955;48.916;2.336;2023-10-09T07:21:12;22.48;;;8.45;;
53072;SDS011;38955;48.916;2.336;2023-10-09T07:23:18;31.45;;;9.90;;
53072;SDS011;38955;48.916;2.336;2023-10-09T07:25:23;16.50;;;7.38;;
53072;SDS011;38955;48.916;2.336;2023-10-09T07:27:43;19.85;;;7.97;;
53072;SDS011;38955;48.916;2.336;2023-10-09T07:29:46;28.25;;;9.65;;
53072;SDS011;38955;48.916;2.336;2023-10-09T07:31:52;21.42;;;8.57;;
53072;SDS011;38955;48.916;2.336;2023-10-09T07:34:15;27.92;;;10.40;;
53072;SDS011;38955;48.916;2.336;2023-10-09T07:36:32;29.45;;;10.63;;
53072;SDS011;38955;48.916;2.336;2023-10-09T07:38:39;21.45;;;9.75;;
53072;SDS011;38955;48.916;2.336;2023-10-09T07:40:46;29.35;;;11.65;;
53072;SDS011;38955;48.916;2.336;2023-10-09T07:43:21;19.38;;;8.85;;
53072;SDS011;38955;48.916;2.336;2023-10-09T07:45:27;27.20;;;9.55;;
53072;SDS011;38955;48.916;2.336;2023-10-09T07:47:29;22.17;;;8.38;;
53072;SDS011;38955;48.916;2.336;2023-10-09T07:49:49;29.20;;;8.40;;
53072;SDS011;38955;48.916;2.336;2023-10-09T07:51:55;23.73;;;9.20;;
53072;SDS011;38955;48.916;2.336;2023-10-09T07:54:00;24.48;;;8.07;;
53072;SDS011;38955;48.916;2.336;2023-10-09T07:56:08;25.80;;;8.13;;
53072;SDS011;38955;48.916;2.336;2023-10-09T07:58:10;28.65;;;9.13;;
53072;SDS011;38955;48.916;2.336;2023-10-09T08:00:13;27.80;;;8.00;;
53072;SDS011;38955;48.916;2.336;2023-10-09T08:02:35;18.50;;;8.20;;
53072;SDS011;38955;48.916;2.336;2023-10-09T08:04:38;25.65;;;7.90;;
53072;SDS011;38955;48.916;2.336;2023-10-09T08:06:51;27.77;;;8.57;;
53072;SDS011;38955;48.916;2.336;2023-10-09T08:09:14;18.05;;;7.18;;
53072;SDS011;38955;48.916;2.336;2023-10-09T08:11:23;28.73;;;9.13;;
53072;SDS011;38955;48.916;2.336;2023-10-09T08:13:44;28.27;;;8.38;;
53072;SDS011;38955;48.916;2.336;2023-10-09T08:15:58;21.50;;;8.07;;
53072;SDS011;38955;48.916;2.336;2023-10-09T08:18:09;23.58;;;7.82;;
53072;SDS011;38955;48.916;2.336;2023-10-09T08:20:15;22.42;;;7.78;;
53072;SDS011;38955;48.916;2.336;2023-10-09T08:22:23;19.40;;;7.50;;
53072;SDS011;38955;48.916;2.336;2023-10-09T08:24:26;18.70;;;7.72;;
53072;SDS011;38955;48.916;2.336;2023-10-09T08:26:42;22.10;;;8.05;;
53072;SDS011;38955;48.916;2.336;2023-10-09T08:29:05;22.45;;;7.93;;
53072;SDS011;38955;48.916;2.336;2023-10-09T08:31:19;16.65;;;7.22;;
53072;SDS011;38955;48.916;2.336;2023-10-09T08:33:36;13.73;;;6.75;;
53072;SDS011;38955;48.916;2.336;2023-10-09T08:35:45;22.42;;;7.13;;
53072;SDS011;38955;48.916;2.336;2023-10-09T08:37:52;27.15;;;8.02;;
53072;SDS011;38955;48.916;2.336;2023-10-09T08:39:54;18.00;;;7.28;;
53072;SDS011;38955;48.916;2.336;2023-10-09T08:41:57;16.33;;;7.15;;
53072;SDS011;38955;48.916;2.336;2023-10-09T08:43:59;16.27;;;6.68;;
53072;SDS011;38955;48.916;2.336;2023-10-09T08:46:05;22.02;;;8.48;;
53072;SDS011;38955;48.916;2.336;2023-10-09T08:48:08;23.88;;;8.00;;
53072;SDS011;38955;48.916;2.336;2023-10-09T08:50:17;24.30;;;8.50;;
53072;SDS011;38955;48.916;2.336;2023-10-09T08:52:20;29.50;;;9.75;;
53072;SDS011;38955;48.916;2.336;2023-10-09T08:54:24;24.63;;;9.35;;
53072;SDS011;38955;48.916;2.336;2023-10-09T08:56:26;26.90;;;8.80;;
53072;SDS011;38955;48.916;2.336;2023-10-09T08:58:29;27.63;;;9.70;;
53072;SDS011;38955;48.916;2.336;2023-10-09T09:00:38;24.92;;;8.65;;
53072;SDS011;38955;48.916;2.336;2023-10-09T09:02:44;30.52;;;9.05;;
53072;SDS011;38955;48.916;2.336;2023-10-09T09:04:48;24.77;;;8.67;;
53072;SDS011;38955;48.916;2.336;2023-10-09T09:06:52;24.23;;;8.73;;
53072;SDS011;38955;48.916;2.336;2023-10-09T09:08:54;20.77;;;8.80;;
53072;SDS011;38955;48.916;2.336;2023-10-09T09:11:17;28.13;;;9.02;;
53072;SDS011;38955;48.916;2.336;2023-10-09T09:13:24;18.10;;;8.32;;
53072;SDS011;38955;48.916;2.336;2023-10-09T09:15:26;22.40;;;8.35;;
53072;SDS011;38955;48.916;2.336;2023-10-09T09:17:30;20.65;;;8.95;;
53072;SDS011;38955;48.916;2.336;2023-10-09T09:19:34;21.30;;;8.80;;
53072;SDS011;38955;48.916;2.336;2023-10-09T09:23:49;16.90;;;8.13;;
53072;SDS011;38955;48.916;2.336;2023-10-09T09:25:56;22.80;;;9.40;;
53072;SDS011;38955;48.916;2.336;2023-10-09T09:28:04;23.92;;;8.70;;
53072;SDS011;38955;48.916;2.336;2023-10-09T09:30:21;20.27;;;8.98;;
53072;SDS011;38955;48.916;2.336;2023-10-09T09:32:28;21.13;;;8.95;;
53072;SDS011;38955;48.916;2.336;2023-10-09T09:34:41;17.58;;;8.73;;
53072;SDS011;38955;48.916;2.336;2023-10-09T09:36:49;26.35;;;9.23;;
53072;SDS011;38955;48.916;2.336;2023-10-09T09:38:55;25.42;;;9.15;;
53072;SDS011;38955;48.916;2.336;2023-10-09T09:41:02;23.40;;;9.05;;
53072;SDS011;38955;48.916;2.336;2023-10-09T09:43:10;30.80;;;8.88;;
53072;SDS011;38955;48.916;2.336;2023-10-09T09:45:23;30.52;;;9.85;;
53072;SDS011;38955;48.916;2.336;2023-10-09T09:47:26;22.52;;;8.38;;
53072;SDS011;38955;48.916;2.336;2023-10-09T09:49:29;26.20;;;9.60;;
53072;SDS011;38955;48.916;2.336;2023-10-09T09:51:33;29.95;;;9.55;;
53072;SDS011;38955;48.916;2.336;2023-10-09T09:53:36;28.95;;;9.63;;
53072;SDS011;38955;48.916;2.336;2023-10-09T09:55:38;30.63;;;9.57;;
53072;SDS011;38955;48.916;2.336;2023-10-09T09:57:44;25.08;;;9.90;;
53072;SDS011;38955;48.916;2.336;2023-10-09T09:59:55;31.83;;;9.40;;
53072;SDS011;38955;48.916;2.336;2023-10-09T10:01:59;30.40;;;9.98;;
53072;SDS011;38955;48.916;2.336;2023-10-09T10:04:09;34.83;;;9.80;;
53072;SDS011;38955;48.916;2.336;2023-10-09T10:06:15;22.55;;;9.48;;
53072;SDS011;38955;48.916;2.336;2023-10-09T10:08:21;30.70;;;9.05;;
53072;SDS011;38955;48.916;2.336;2023-10-09T10:10:35;29.33;;;9.32;;
53072;SDS011;38955;48.916;2.336;2023-10-09T10:12:51;24.67;;;9.88;;
53072;SDS011;38955;48.916;2.336;2023-10-09T10:15:04;25.85;;;9.85;;
53072;SDS011;38955;48.916;2.336;2023-10-09T10:17:09;29.45;;;9.73;;
53072;SDS011;38955;48.916;2.336;2023-10-09T10:19:23;26.67;;;9.70;;
53072;SDS011;38955;48.916;2.336;2023-10-09T10:21:25;32.92;;;9.88;;
53072;SDS011;38955;48.916;2.336;2023-10-09T10:23:33;33.35;;;10.27;;
53072;SDS011;38955;48.916;2.336;2023-10-09T10:25:38;29.52;;;9.30;;
53072;SDS011;38955;48.916;2.336;2023-10-09T10:27:43;28.27;;;9.68;;
53072;SDS011;38955;48.916;2.336;2023-10-09T10:34:55;27.27;;;9.13;;
53072;SDS011;38955;48.916;2.336;2023-10-09T10:36:58;20.55;;;8.43;;
53072;SDS011;38955;48.916;2.336;2023-10-09T10:39:01;28.60;;;7.65;;
53072;SDS011;38955;48.916;2.336;2023-10-09T10:41:09;22.17;;;7.78;;
53072;SDS011;38955;48.916;2.336;2023-10-09T10:43:18;15.82;;;6.43;;
53072;SDS011;38955;48.916;2.336;2023-10-09T10:45:35;19.90;;;7.40;;
53072;SDS011;38955;48.916;2.336;2023-10-09T10:47:45;17.77;;;7.28;;
53072;SDS011;38955;48.916;2.336;2023-10-09T10:49:50;14.68;;;6.22;;
53072;SDS011;38955;48.916;2.336;2023-10-09T10:52:00;16.45;;;6.15;;
53072;SDS011;38955;48.916;2.336;2023-10-09T10:54:22;13.75;;;6.75;;
53072;SDS011;38955;48.916;2.336;2023-10-09T10:56:47;16.70;;;6.55;;
53072;SDS011;38955;48.916;2.336;2023-10-09T10:58:53;19.00;;;6.32;;
53072;SDS011;38955;48.916;2.336;2023-10-09T11:01:14;16.25;;;6.15;;
53072;SDS011;38955;48.916;2.336;2023-10-09T11:03:22;13.30;;;5.60;;
53072;SDS011;38955;48.916;2.336;2023-10-09T11:05:30;9.15;;;4.82;;
53072;SDS011;38955;48.916;2.336;2023-10-09T11:07:40;12.70;;;5.18;;
53072;SDS011;38955;48.916;2.336;2023-10-09T11:09:43;18.35;;;6.00;;
53072;SDS011;38955;48.916;2.336;2023-10-09T11:12:04;10.52;;;5.53;;
53072;SDS011;38955;48.916;2.336;2023-10-09T11:14:25;12.88;;;5.18;;
53072;SDS011;38955;48.916;2.336;2023-10-09T11:16:28;13.57;;;5.00;;
53072;SDS011;38955;48.916;2.336;2023-10-09T11:18:38;12.75;;;4.88;;
53072;SDS011;38955;48.916;2.336;2023-10-09T11:20:44;9.25;;;4.38;;
53072;SDS011;38955;48.916;2.336;2023-10-09T11:23:05;9.35;;;4.90;;
53072;SDS011;38955;48.916;2.336;2023-10-09T11:25:13;14.95;;;5.07;;
53072;SDS011;38955;48.916;2.336;2023-10-09T11:27:19;11.63;;;4.50;;
53072;SDS011;38955;48.916;2.336;2023-10-09T11:29:26;13.70;;;4.97;;
53072;SDS011;38955;48.916;2.336;2023-10-09T11:31:29;12.30;;;4.80;;
53072;SDS011;38955;48.916;2.336;2023-10-09T11:33:42;9.85;;;4.40;;
53072;SDS011;38955;48.916;2.336;2023-10-09T11:35:53;7.93;;;4.32;;
53072;SDS011;38955;48.916;2.336;2023-10-09T11:37:58;10.38;;;4.63;;
53072;SDS011;38955;48.916;2.336;2023-10-09T11:40:00;15.00;;;5.13;;
53072;SDS011;38955;48.916;2.336;2023-10-09T11:42:04;10.23;;;5.28;;
53072;SDS011;38955;48.916;2.336;2023-10-09T11:44:07;12.30;;;5.00;;
53072;SDS011;38955;48.916;2.336;2023-10-09T11:46:21;9.63;;;4.90;;
53072;SDS011;38955;48.916;2.336;2023-10-09T11:48:40;12.40;;;4.90;;
53072;SDS011;38955;48.916;2.336;2023-10-09T11:51:11;9.30;;;4.85;;
53072;SDS011;38955;48.916;2.336;2023-10-09T11:53:22;10.93;;;4.47;;
53072;SDS011;38955;48.916;2.336;2023-10-09T11:55:24;12.32;;;5.07;;
53072;SDS011;38955;48.916;2.336;2023-10-09T11:57:27;10.77;;;4.95;;
53072;SDS011;38955;48.916;2.336;2023-10-09T11:59:34;16.52;;;5.82;;
53072;SDS011;38955;48.916;2.336;2023-10-09T12:01:39;9.32;;;5.20;;
53072;SDS011;38955;48.916;2.336;2023-10-09T12:03:56;13.88;;;5.75;;
53072;SDS011;38955;48.916;2.336;2023-10-09T12:05:59;10.80;;;6.13;;
53072;SDS011;38955;48.916;2.336;2023-10-09T12:08:07;14.63;;;7.40;;
53072;SDS011;38955;48.916;2.336;2023-10-09T12:10:14;18.75;;;6.05;;
53072;SDS011;38955;48.916;2.336;2023-10-09T12:12:17;15.45;;;5.85;;
53072;SDS011;38955;48.916;2.336;2023-10-09T12:14:25;15.70;;;5.57;;
53072;SDS011;38955;48.916;2.336;2023-10-09T12:16:34;14.88;;;5.32;;
53072;SDS011;38955;48.916;2.336;2023-10-09T12:18:39;10.77;;;5.70;;
53072;SDS011;38955;48.916;2.336;2023-10-09T12:20:44;8.85;;;4.43;;
53072;SDS011;38955;48.916;2.336;2023-10-09T12:22:53;10.32;;;4.75;;
53072;SDS011;38955;48.916;2.336;2023-10-09T12:24:58;11.27;;;5.10;;
53072;SDS011;38955;48.916;2.336;2023-10-09T12:27:00;7.53;;;4.78;;
53072;SDS011;38955;48.916;2.336;2023-10-09T12:29:02;9.05;;;4.55;;
53072;SDS011;38955;48.916;2.336;2023-10-09T12:31:05;10.27;;;4.47;;
53072;SDS011;38955;48.916;2.336;2023-10-09T12:33:08;20.10;;;4.55;;
53072;SDS011;38955;48.916;2.336;2023-10-09T12:35:15;11.52;;;5.10;;
53072;SDS011;38955;48.916;2.336;2023-10-09T12:37:20;7.85;;;4.28;;
53072;SDS011;38955;48.916;2.336;2023-10-09T12:39:22;13.20;;;4.57;;
53072;SDS011;38955;48.916;2.336;2023-10-09T12:41:24;16.00;;;5.00;;
53072;SDS011;38955;48.916;2.336;2023-10-09T12:43:28;14.47;;;4.27;;
53072;SDS011;38955;48.916;2.336;2023-10-09T12:45:33;13.50;;;5.05;;
53072;SDS011;38955;48.916;2.336;2023-10-09T12:49:40;11.98;;;5.22;;
53072;SDS011;38955;48.916;2.336;2023-10-09T12:51:43;15.32;;;4.50;;
53072;SDS011;38955;48.916;2.336;2023-10-09T12:53:47;12.43;;;5.35;;
53072;SDS011;38955;48.916;2.336;2023-10-09T12:55:55;9.80;;;4.72;;
53072;SDS011;38955;48.916;2.336;2023-10-09T12:58:02;11.68;;;5.13;;
53072;SDS011;38955;48.916;2.336;2023-10-09T13:00:08;9.85;;;4.72;;